createdAt,value
2023-04-21T00:00:24.637Z,8.80
2023-04-21T00:00:56.558Z,8.80
2023-04-21T00:01:29.829Z,8.80
2023-04-21T00:02:01.662Z,8.80
2023-04-21T00:02:35.876Z,8.80
2023-04-21T00:03:09.536Z,8.80
2023-04-21T00:03:41.986Z,8.80
2023-04-21T00:04:15.208Z,8.90
2023-04-21T00:04:49.683Z,8.80
2023-04-21T00:05:21.926Z,8.80
2023-04-21T00:05:56.182Z,8.90
2023-04-21T00:06:31.244Z,8.80
2023-04-21T00:07:04.315Z,8.80
2023-04-21T00:07:37.703Z,8.80
2023-04-21T00:08:10.447Z,8.80
2023-04-21T00:08:42.350Z,8.70
2023-04-21T00:09:15.191Z,8.80
2023-04-21T00:09:47.000Z,8.80
2023-04-21T00:10:18.861Z,8.80
2023-04-21T00:10:51.807Z,8.80
2023-04-21T00:11:23.871Z,8.80
2023-04-21T00:11:56.064Z,8.80
2023-04-21T00:12:30.178Z,8.80
2023-04-21T00:13:01.976Z,8.80
2023-04-21T00:13:33.876Z,8.80
2023-04-21T00:14:06.686Z,8.80
2023-04-21T00:14:39.947Z,8.80
2023-04-21T00:15:13.218Z,8.80
2023-04-21T00:15:45.200Z,8.80
2023-04-21T00:16:17.147Z,8.80
2023-04-21T00:16:52.486Z,8.80
2023-04-21T00:17:24.394Z,8.80
2023-04-21T00:17:58.033Z,8.80
2023-04-21T00:18:30.927Z,8.80
2023-04-21T00:19:06.702Z,8.80
2023-04-21T00:19:38.562Z,8.80
2023-04-21T00:20:12.232Z,8.90
2023-04-21T00:20:44.916Z,8.80
2023-04-21T00:21:17.632Z,8.90
2023-04-21T00:21:50.517Z,8.80
2023-04-21T00:22:22.458Z,8.80
2023-04-21T00:22:54.442Z,8.80
2023-04-21T00:23:27.214Z,8.90
2023-04-21T00:23:58.994Z,8.90
2023-04-21T00:24:30.749Z,8.90
2023-04-21T00:25:03.621Z,8.90
2023-04-21T00:25:35.630Z,9.00
2023-04-21T00:26:07.574Z,9.00
2023-04-21T00:26:40.411Z,9.00
2023-04-21T00:27:13.229Z,9.00
2023-04-21T00:27:46.366Z,9.00
2023-04-21T00:28:18.552Z,9.00
2023-04-21T00:28:51.481Z,9.00
2023-04-21T00:29:23.255Z,9.10
2023-04-21T00:29:55.027Z,9.10
2023-04-21T00:30:27.840Z,9.10
2023-04-21T00:30:59.740Z,9.10
2023-04-21T00:31:31.616Z,9.10
2023-04-21T00:32:08.294Z,9.20
2023-04-21T00:32:40.225Z,9.20
2023-04-21T00:33:12.069Z,9.20
2023-04-21T00:33:44.878Z,9.20
2023-04-21T00:34:16.743Z,9.20
2023-04-21T00:34:48.621Z,9.20
2023-04-21T00:35:21.398Z,9.20
2023-04-21T00:35:54.379Z,9.20
2023-04-21T00:36:28.119Z,9.20
2023-04-21T00:36:59.925Z,9.20
2023-04-21T00:37:32.804Z,9.10
2023-04-21T00:38:04.746Z,9.10
2023-04-21T00:38:36.552Z,9.10
2023-04-21T00:39:09.562Z,9.10
2023-04-21T00:39:41.421Z,9.10
2023-04-21T00:40:13.625Z,9.10
2023-04-21T00:40:46.382Z,9.10
2023-04-21T00:41:18.269Z,9.10
2023-04-21T00:41:50.071Z,9.10
2023-04-21T00:42:22.851Z,9.00
2023-04-21T00:42:56.100Z,9.00
2023-04-21T00:43:28.039Z,9.00
2023-04-21T00:44:05.822Z,8.90
2023-04-21T00:44:37.619Z,8.90
2023-04-21T00:45:09.924Z,8.90
2023-04-21T00:45:42.651Z,8.90
2023-04-21T00:46:14.640Z,8.90
2023-04-21T00:46:46.930Z,8.90
2023-04-21T00:47:19.902Z,8.90
2023-04-21T00:47:52.318Z,8.90
2023-04-21T00:48:24.195Z,8.90
2023-04-21T00:48:56.988Z,8.80
2023-04-21T00:49:28.970Z,8.90
2023-04-21T00:50:00.977Z,8.80
2023-04-21T00:50:34.499Z,8.90
2023-04-21T00:51:06.311Z,8.90
2023-04-21T00:51:38.353Z,8.90
2023-04-21T00:52:11.323Z,8.90
2023-04-21T00:52:44.322Z,8.90
2023-04-21T00:53:16.690Z,8.90
2023-04-21T00:53:50.365Z,8.80
2023-04-21T00:54:25.339Z,8.80
2023-04-21T00:54:57.438Z,8.80
2023-04-21T00:55:31.175Z,8.90
2023-04-21T00:56:03.237Z,8.90
2023-04-21T00:56:36.476Z,8.90
2023-04-21T00:57:08.375Z,8.90
2023-04-21T00:57:42.216Z,8.90
2023-04-21T00:58:15.400Z,8.90
2023-04-21T00:58:48.238Z,8.90
2023-04-21T00:59:21.151Z,8.90
2023-04-21T00:59:53.176Z,8.90
2023-04-21T01:00:25.074Z,8.90
2023-04-21T01:00:58.403Z,9.00
2023-04-21T01:01:30.902Z,9.00
2023-04-21T01:02:03.313Z,9.00
2023-04-21T01:02:37.311Z,9.00
2023-04-21T01:03:09.457Z,9.00
2023-04-21T01:03:42.270Z,9.00
2023-04-21T01:04:15.283Z,9.00
2023-04-21T01:04:47.564Z,9.10
2023-04-21T01:05:19.481Z,9.10
2023-04-21T01:05:52.300Z,9.00
2023-04-21T01:06:24.213Z,9.00
2023-04-21T01:06:56.136Z,9.00
2023-04-21T01:07:29.624Z,9.00
2023-04-21T01:08:02.145Z,9.10
2023-04-21T01:08:34.754Z,9.00
2023-04-21T01:09:07.531Z,9.10
2023-04-21T01:09:39.477Z,9.10
2023-04-21T01:10:11.554Z,9.10
2023-04-21T01:10:44.825Z,9.10
2023-04-21T01:11:16.678Z,9.10
2023-04-21T01:12:02.134Z,9.20
2023-04-21T01:12:35.536Z,9.20
2023-04-21T01:13:07.339Z,9.20
2023-04-21T01:13:41.355Z,9.20
2023-04-21T01:14:14.112Z,9.20
2023-04-21T01:14:46.222Z,9.30
2023-04-21T01:15:18.087Z,9.30
2023-04-21T01:15:50.024Z,9.30
2023-04-21T01:16:24.179Z,9.20
2023-04-21T01:16:56.741Z,9.30
2023-04-21T01:17:30.177Z,9.20
2023-04-21T01:18:03.146Z,9.20
2023-04-21T01:18:36.372Z,9.30
2023-04-21T01:19:08.253Z,9.20
2023-04-21T01:19:43.670Z,9.20
2023-04-21T01:20:15.819Z,9.30
2023-04-21T01:20:49.896Z,9.30
2023-04-21T01:21:23.593Z,9.30
2023-04-21T01:21:57.689Z,9.30
2023-04-21T01:22:31.777Z,9.30
2023-04-21T01:23:04.597Z,9.30
2023-04-21T01:23:36.447Z,9.30
2023-04-21T01:24:08.399Z,9.30
2023-04-21T01:24:43.070Z,9.40
2023-04-21T01:25:14.973Z,9.30
2023-04-21T01:25:47.101Z,9.30
2023-04-21T01:26:20.118Z,9.30
2023-04-21T01:26:51.926Z,9.40
2023-04-21T01:27:23.755Z,9.40
2023-04-21T01:27:56.560Z,9.40
2023-04-21T01:28:28.448Z,9.40
2023-04-21T01:29:00.226Z,9.50
2023-04-21T01:29:33.750Z,9.40
2023-04-21T01:30:08.570Z,9.50
2023-04-21T01:30:40.571Z,9.40
2023-04-21T01:31:12.374Z,9.40
2023-04-21T01:31:47.458Z,9.40
2023-04-21T01:32:21.330Z,9.40
2023-04-21T01:32:53.378Z,9.40
2023-04-21T01:33:26.314Z,9.40
2023-04-21T01:33:58.169Z,9.30
2023-04-21T01:34:30.139Z,9.30
2023-04-21T01:35:03.354Z,9.30
2023-04-21T01:35:35.178Z,9.30
2023-04-21T01:36:08.093Z,9.30
2023-04-21T01:36:40.885Z,9.30
2023-04-21T01:37:16.270Z,9.20
2023-04-21T01:37:48.134Z,9.30
2023-04-21T01:38:20.052Z,9.20
2023-04-21T01:38:52.802Z,9.20
2023-04-21T01:39:24.681Z,9.20
2023-04-21T01:39:58.714Z,9.30
2023-04-21T01:40:30.559Z,9.30
2023-04-21T01:41:03.556Z,9.20
2023-04-21T01:41:35.823Z,9.30
2023-04-21T01:42:08.567Z,9.30
2023-04-21T01:42:43.701Z,9.30
2023-04-21T01:43:18.441Z,9.30
2023-04-21T01:43:50.271Z,9.30
2023-04-21T01:44:22.139Z,9.40
2023-04-21T01:44:55.190Z,9.40
2023-04-21T01:45:27.082Z,9.40
2023-04-21T01:45:59.004Z,9.50
2023-04-21T01:46:31.874Z,9.50
2023-04-21T01:47:04.009Z,9.50
2023-04-21T01:47:35.945Z,9.40
2023-04-21T01:48:09.282Z,9.50
2023-04-21T01:48:41.123Z,9.40
2023-04-21T01:49:12.891Z,9.40
2023-04-21T01:49:45.699Z,9.40
2023-04-21T01:50:18.123Z,9.40
2023-04-21T01:50:49.916Z,9.40
2023-04-21T01:51:22.706Z,9.40
2023-04-21T01:51:54.591Z,9.40
2023-04-21T01:52:27.854Z,9.40
2023-04-21T01:53:00.650Z,9.40
2023-04-21T01:53:32.471Z,9.40
2023-04-21T01:54:04.497Z,9.40
2023-04-21T01:54:37.399Z,9.40
2023-04-21T01:55:10.127Z,9.40
2023-04-21T01:55:42.961Z,9.40
2023-04-21T01:56:15.093Z,9.40
2023-04-21T01:56:46.981Z,9.50
2023-04-21T01:57:19.882Z,9.50
2023-04-21T01:57:51.710Z,9.50
2023-04-21T01:58:23.536Z,9.50
2023-04-21T01:58:56.358Z,9.50
2023-04-21T01:59:28.238Z,9.50
2023-04-21T02:00:00.148Z,9.50
2023-04-21T02:00:33.013Z,9.60
2023-04-21T02:01:05.036Z,9.60
2023-04-21T02:01:36.961Z,9.60
2023-04-21T02:02:09.104Z,9.70
2023-04-21T02:02:42.100Z,9.70
2023-04-21T02:03:14.116Z,9.60
2023-04-21T02:03:46.129Z,9.70
2023-04-21T02:04:19.280Z,9.70
2023-04-21T02:04:51.538Z,9.70
2023-04-21T02:05:23.395Z,9.70
2023-04-21T02:05:56.147Z,9.70
2023-04-21T02:06:27.975Z,9.70
2023-04-21T02:07:00.145Z,9.70
2023-04-21T02:07:34.369Z,9.70
2023-04-21T02:08:06.819Z,9.80
2023-04-21T02:08:38.674Z,9.80
2023-04-21T02:09:11.524Z,9.80
2023-04-21T02:09:43.337Z,9.80
2023-04-21T02:10:15.270Z,9.80
2023-04-21T02:10:48.187Z,9.80
2023-04-21T02:11:20.200Z,9.80
2023-04-21T02:11:52.124Z,9.80
2023-04-21T02:12:24.919Z,9.80
2023-04-21T02:12:56.716Z,9.80
2023-04-21T02:13:28.499Z,9.80
2023-04-21T02:14:01.382Z,9.80
2023-04-21T02:14:33.174Z,9.80
2023-04-21T02:15:06.366Z,9.80
2023-04-21T02:15:39.173Z,9.80
2023-04-21T02:16:13.770Z,9.80
2023-04-21T02:16:46.350Z,9.80
2023-04-21T02:17:19.281Z,9.80
2023-04-21T02:17:51.342Z,9.80
2023-04-21T02:18:23.126Z,9.80
2023-04-21T02:18:57.691Z,9.90
2023-04-21T02:19:29.513Z,9.90
2023-04-21T02:20:03.889Z,9.90
2023-04-21T02:20:37.951Z,9.90
2023-04-21T02:21:09.852Z,9.90
2023-04-21T02:21:41.751Z,9.90
2023-04-21T02:22:14.562Z,9.90
2023-04-21T02:22:47.734Z,9.90
2023-04-21T02:23:19.551Z,9.90
2023-04-21T02:23:52.093Z,9.90
2023-04-21T02:24:25.131Z,9.90
2023-04-21T02:24:56.896Z,9.90
2023-04-21T02:25:29.702Z,9.80
2023-04-21T02:26:01.550Z,9.90
2023-04-21T02:26:34.323Z,9.90
2023-04-21T02:27:06.127Z,9.90
2023-04-21T02:27:37.981Z,9.90
2023-04-21T02:28:10.736Z,9.90
2023-04-21T02:28:42.528Z,9.90
2023-04-21T02:29:14.326Z,9.90
2023-04-21T02:29:47.099Z,9.90
2023-04-21T02:30:19.039Z,9.90
2023-04-21T02:30:51.016Z,9.90
2023-04-21T02:31:23.995Z,9.90
2023-04-21T02:32:03.318Z,9.90
2023-04-21T02:32:42.695Z,9.90
2023-04-21T02:33:15.630Z,9.90
2023-04-21T02:33:47.516Z,9.90
2023-04-21T02:34:20.505Z,9.90
2023-04-21T02:34:53.300Z,9.90
2023-04-21T02:35:25.537Z,9.90
2023-04-21T02:35:57.341Z,9.90
2023-04-21T02:36:30.775Z,9.80
2023-04-21T02:37:02.752Z,9.90
2023-04-21T02:37:35.170Z,9.90
2023-04-21T02:38:10.326Z,9.90
2023-04-21T02:38:42.201Z,9.90
2023-04-21T02:39:14.013Z,9.90
2023-04-21T02:39:46.762Z,9.90
2023-04-21T02:40:18.654Z,9.90
2023-04-21T02:40:50.604Z,9.90
2023-04-21T02:41:24.191Z,9.90
2023-04-21T02:41:56.381Z,9.90
2023-04-21T02:42:28.179Z,9.90
2023-04-21T02:43:01.494Z,9.90
2023-04-21T02:43:33.301Z,9.90
2023-04-21T02:44:05.266Z,9.80
2023-04-21T02:44:37.587Z,9.80
2023-04-21T02:45:12.083Z,9.80
2023-04-21T02:45:43.984Z,9.80
2023-04-21T02:46:15.856Z,9.80
2023-04-21T02:46:48.711Z,9.80
2023-04-21T02:47:20.704Z,9.90
2023-04-21T02:47:52.661Z,9.90
2023-04-21T02:48:26.695Z,9.90
2023-04-21T02:48:58.509Z,9.90
2023-04-21T02:49:30.392Z,9.90
2023-04-21T02:50:04.070Z,9.90
2023-04-21T02:50:36.139Z,9.90
2023-04-21T02:51:12.132Z,9.80
2023-04-21T02:51:44.922Z,9.90
2023-04-21T02:52:16.811Z,9.80
2023-04-21T02:52:48.591Z,9.80
2023-04-21T02:53:22.860Z,9.80
2023-04-21T02:53:54.660Z,9.80
2023-04-21T02:54:26.581Z,9.80
2023-04-21T02:54:59.354Z,9.80
2023-04-21T02:55:31.318Z,9.80
2023-04-21T02:56:04.840Z,9.80
2023-04-21T02:56:37.708Z,9.80
2023-04-21T02:57:09.476Z,9.80
2023-04-21T02:57:42.317Z,9.80
2023-04-21T02:58:14.250Z,9.80
2023-04-21T02:58:47.029Z,9.80
2023-04-21T02:59:19.198Z,9.80
2023-04-21T02:59:51.358Z,9.80
2023-04-21T03:00:24.339Z,9.80
2023-04-21T03:00:56.215Z,9.80
2023-04-21T03:01:28.066Z,9.80
2023-04-21T03:02:00.960Z,9.80
2023-04-21T03:02:32.919Z,9.80
2023-04-21T03:03:05.057Z,9.80
2023-04-21T03:03:38.564Z,9.80
2023-04-21T03:04:10.539Z,9.70
2023-04-21T03:04:42.576Z,9.70
2023-04-21T03:05:15.976Z,9.70
2023-04-21T03:05:47.770Z,9.70
2023-04-21T03:06:19.608Z,9.70
2023-04-21T03:06:52.565Z,9.70
2023-04-21T03:07:24.430Z,9.70
2023-04-21T03:07:56.288Z,9.70
2023-04-21T03:08:31.291Z,9.70
2023-04-21T03:09:03.224Z,9.70
2023-04-21T03:09:35.925Z,9.70
2023-04-21T03:10:09.199Z,9.70
2023-04-21T03:10:41.238Z,9.70
2023-04-21T03:11:13.091Z,9.70
2023-04-21T03:11:45.025Z,9.70
2023-04-21T03:12:17.810Z,9.70
2023-04-21T03:12:49.630Z,9.70
2023-04-21T03:13:21.567Z,9.70
2023-04-21T03:13:54.323Z,9.70
2023-04-21T03:14:26.153Z,9.70
2023-04-21T03:14:58.765Z,9.70
2023-04-21T03:15:31.542Z,9.70
2023-04-21T03:16:03.734Z,9.80
2023-04-21T03:16:35.644Z,9.80
2023-04-21T03:17:08.480Z,9.80
2023-04-21T03:17:40.417Z,9.80
2023-04-21T03:18:12.592Z,9.80
2023-04-21T03:18:45.548Z,9.80
2023-04-21T03:19:17.552Z,9.80
2023-04-21T03:19:49.572Z,9.80
2023-04-21T03:20:22.561Z,9.80
2023-04-21T03:20:59.910Z,9.80
2023-04-21T03:21:31.857Z,9.80
2023-04-21T03:22:04.943Z,9.80
2023-04-21T03:22:36.776Z,9.80
2023-04-21T03:23:08.647Z,9.80
2023-04-21T03:23:42.864Z,9.80
2023-04-21T03:24:14.684Z,9.80
2023-04-21T03:24:46.504Z,9.80
2023-04-21T03:25:19.305Z,9.80
2023-04-21T03:25:51.174Z,9.80
2023-04-21T03:26:23.054Z,9.80
2023-04-21T03:26:56.874Z,9.80
2023-04-21T03:27:28.756Z,9.80
2023-04-21T03:28:00.712Z,9.80
2023-04-21T03:28:33.498Z,9.80
2023-04-21T03:29:05.427Z,9.90
2023-04-21T03:29:37.224Z,9.80
2023-04-21T03:30:11.049Z,9.80
2023-04-21T03:30:42.934Z,9.80
2023-04-21T03:31:14.807Z,9.80
2023-04-21T03:31:47.581Z,9.80
2023-04-21T03:32:19.536Z,9.80
2023-04-21T03:32:51.649Z,9.80
2023-04-21T03:33:24.494Z,9.80
2023-04-21T03:33:56.404Z,9.80
2023-04-21T03:34:28.227Z,9.80
2023-04-21T03:35:00.045Z,9.80
2023-04-21T03:35:34.218Z,9.80
2023-04-21T03:36:07.890Z,9.80
2023-04-21T03:36:39.765Z,9.80
2023-04-21T03:37:12.547Z,9.80
2023-04-21T03:37:44.369Z,9.80
2023-04-21T03:38:16.183Z,9.80
2023-04-21T03:38:50.362Z,9.80
2023-04-21T03:39:22.394Z,9.70
2023-04-21T03:39:54.535Z,9.80
2023-04-21T03:40:26.315Z,9.70
2023-04-21T03:40:59.102Z,9.80
2023-04-21T03:41:30.860Z,9.80
2023-04-21T03:42:02.731Z,9.80
2023-04-21T03:42:35.512Z,9.80
2023-04-21T03:43:07.274Z,9.70
2023-04-21T03:43:39.161Z,9.70
2023-04-21T03:44:11.913Z,9.70
2023-04-21T03:44:46.184Z,9.70
2023-04-21T03:45:22.354Z,9.70
2023-04-21T03:45:54.313Z,9.70
2023-04-21T03:46:26.428Z,9.70
2023-04-21T03:46:58.593Z,9.70
2023-04-21T03:47:31.397Z,9.70
2023-04-21T03:48:03.632Z,9.70
2023-04-21T03:48:35.585Z,9.60
2023-04-21T03:49:08.392Z,9.70
2023-04-21T03:49:40.384Z,9.70
2023-04-21T03:50:12.246Z,9.70
2023-04-21T03:50:45.128Z,9.60
2023-04-21T03:51:17.325Z,9.60
2023-04-21T03:51:49.205Z,9.60
2023-04-21T03:52:22.024Z,9.60
2023-04-21T03:52:53.794Z,9.60
2023-04-21T03:53:25.703Z,9.60
2023-04-21T03:53:59.185Z,9.60
2023-04-21T03:54:31.932Z,9.60
2023-04-21T03:55:05.022Z,9.60
2023-04-21T03:55:36.804Z,9.60
2023-04-21T03:56:09.716Z,9.60
2023-04-21T03:56:41.627Z,9.60
2023-04-21T03:57:13.521Z,9.60
2023-04-21T03:57:46.356Z,9.60
2023-04-21T03:58:18.467Z,9.60
2023-04-21T03:58:50.398Z,9.60
2023-04-21T03:59:23.253Z,9.60
2023-04-21T03:59:55.270Z,9.60
2023-04-21T04:00:27.231Z,9.60
2023-04-21T04:01:00.024Z,9.60
2023-04-21T04:01:31.892Z,9.60
2023-04-21T04:02:03.927Z,9.60
2023-04-21T04:02:36.721Z,9.60
2023-04-21T04:03:09.747Z,9.60
2023-04-21T04:03:41.819Z,9.60
2023-04-21T04:04:13.880Z,9.60
2023-04-21T04:04:47.389Z,9.60
2023-04-21T04:05:19.497Z,9.60
2023-04-21T04:05:51.364Z,9.60
2023-04-21T04:06:24.196Z,9.60
2023-04-21T04:06:56.000Z,9.60
2023-04-21T04:07:27.850Z,9.70
2023-04-21T04:08:00.636Z,9.60
2023-04-21T04:08:32.468Z,9.60
2023-04-21T04:09:05.766Z,9.60
2023-04-21T04:09:38.792Z,9.60
2023-04-21T04:10:11.482Z,9.60
2023-04-21T04:10:43.284Z,9.60
2023-04-21T04:11:16.117Z,9.60
2023-04-21T04:11:47.902Z,9.60
2023-04-21T04:12:19.676Z,9.60
2023-04-21T04:12:52.443Z,9.60
2023-04-21T04:13:26.327Z,9.60
2023-04-21T04:13:58.270Z,9.60
2023-04-21T04:14:31.194Z,9.60
2023-04-21T04:15:03.159Z,9.60
2023-04-21T04:15:35.191Z,9.60
2023-04-21T04:16:08.743Z,9.60
2023-04-21T04:16:41.397Z,9.60
2023-04-21T04:17:13.318Z,9.60
2023-04-21T04:17:46.211Z,9.70
2023-04-21T04:18:18.025Z,9.60
2023-04-21T04:18:50.271Z,9.60
2023-04-21T04:19:23.157Z,9.60
2023-04-21T04:19:55.034Z,9.60
2023-04-21T04:20:26.886Z,9.60
2023-04-21T04:20:59.626Z,9.70
2023-04-21T04:21:32.483Z,9.70
2023-04-21T04:22:04.381Z,9.60
2023-04-21T04:22:37.246Z,9.60
2023-04-21T04:23:09.209Z,9.60
2023-04-21T04:23:41.063Z,9.60
2023-04-21T04:24:15.719Z,9.60
2023-04-21T04:24:47.932Z,9.60
2023-04-21T04:25:20.195Z,9.60
2023-04-21T04:25:52.955Z,9.60
2023-04-21T04:26:25.091Z,9.60
2023-04-21T04:26:58.117Z,9.60
2023-04-21T04:27:30.978Z,9.60
2023-04-21T04:28:02.937Z,9.60
2023-04-21T04:28:35.475Z,9.60
2023-04-21T04:29:10.455Z,9.60
2023-04-21T04:29:43.845Z,9.60
2023-04-21T04:30:15.952Z,9.60
2023-04-21T04:30:48.718Z,9.70
2023-04-21T04:31:21.403Z,9.70
2023-04-21T04:31:53.366Z,9.60
2023-04-21T04:32:28.366Z,9.70
2023-04-21T04:33:00.402Z,9.70
2023-04-21T04:33:32.211Z,9.60
2023-04-21T04:34:05.036Z,9.60
2023-04-21T04:34:37.567Z,9.60
2023-04-21T04:35:10.689Z,9.60
2023-04-21T04:35:42.468Z,9.50
2023-04-21T04:36:15.266Z,9.50
2023-04-21T04:36:47.990Z,9.50
2023-04-21T04:37:21.764Z,9.60
2023-04-21T04:37:56.792Z,9.60
2023-04-21T04:38:30.232Z,9.50
2023-04-21T04:39:02.083Z,9.50
2023-04-21T04:39:36.974Z,9.60
2023-04-21T04:40:10.208Z,9.50
2023-04-21T04:40:42.426Z,9.50
2023-04-21T04:41:15.746Z,9.50
2023-04-21T04:41:48.582Z,9.50
2023-04-21T04:42:20.437Z,9.50
2023-04-21T04:42:54.857Z,9.50
2023-04-21T04:43:26.670Z,9.50
2023-04-21T04:44:00.859Z,9.50
2023-04-21T04:44:33.907Z,9.60
2023-04-21T04:45:08.099Z,9.60
2023-04-21T04:45:39.926Z,9.50
2023-04-21T04:46:13.410Z,9.60
2023-04-21T04:46:45.553Z,9.50
2023-04-21T04:47:17.485Z,9.50
2023-04-21T04:47:51.066Z,9.50
2023-04-21T04:48:22.899Z,9.50
2023-04-21T04:48:54.703Z,9.50
2023-04-21T04:49:27.487Z,9.50
2023-04-21T04:49:59.334Z,9.50
2023-04-21T04:50:31.228Z,9.50
2023-04-21T04:51:04.021Z,9.60
2023-04-21T04:51:35.984Z,9.50
2023-04-21T04:52:08.128Z,9.50
2023-04-21T04:52:40.889Z,9.60
2023-04-21T04:53:12.688Z,9.60
2023-04-21T04:53:44.478Z,9.60
2023-04-21T04:54:17.386Z,9.60
2023-04-21T04:54:50.828Z,9.60
2023-04-21T04:55:22.688Z,9.60
2023-04-21T04:55:55.822Z,9.60
2023-04-21T04:56:29.607Z,9.60
2023-04-21T04:57:02.321Z,9.60
2023-04-21T04:57:35.423Z,9.60
2023-04-21T04:58:07.282Z,9.60
2023-04-21T04:58:39.149Z,9.60
2023-04-21T04:59:12.232Z,9.60
2023-04-21T04:59:44.089Z,9.60
2023-04-21T05:00:16.193Z,9.60
2023-04-21T05:00:48.983Z,9.60
2023-04-21T05:01:20.987Z,9.60
2023-04-21T05:01:52.954Z,9.60
2023-04-21T05:02:26.026Z,9.60
2023-04-21T05:02:58.220Z,9.60
2023-04-21T05:03:30.682Z,9.60
2023-04-21T05:04:03.724Z,9.60
2023-04-21T05:04:35.920Z,9.60
2023-04-21T05:05:08.291Z,9.60
2023-04-21T05:05:41.193Z,9.60
2023-04-21T05:06:13.954Z,9.60
2023-04-21T05:06:45.799Z,9.60
2023-04-21T05:07:18.613Z,9.60
2023-04-21T05:07:50.647Z,9.60
2023-04-21T05:08:22.455Z,9.60
2023-04-21T05:08:56.020Z,9.60
2023-04-21T05:09:27.812Z,9.60
2023-04-21T05:10:01.104Z,9.60
2023-04-21T05:10:33.901Z,9.70
2023-04-21T05:11:06.714Z,9.60
2023-04-21T05:11:38.499Z,9.60
2023-04-21T05:12:11.333Z,9.60
2023-04-21T05:12:43.205Z,9.60
2023-04-21T05:13:17.226Z,9.60
2023-04-21T05:13:50.096Z,9.60
2023-04-21T05:14:22.071Z,9.60
2023-04-21T05:14:53.962Z,9.60
2023-04-21T05:15:26.745Z,9.70
2023-04-21T05:15:58.814Z,9.60
2023-04-21T05:16:31.620Z,9.70
2023-04-21T05:17:03.602Z,9.70
2023-04-21T05:17:35.515Z,9.70
2023-04-21T05:18:08.415Z,9.70
2023-04-21T05:18:40.576Z,9.70
2023-04-21T05:19:12.446Z,9.70
2023-04-21T05:19:45.232Z,9.70
2023-04-21T05:20:17.124Z,9.70
2023-04-21T05:20:48.972Z,9.70
2023-04-21T05:21:27.404Z,9.70
2023-04-21T05:22:00.757Z,9.80
2023-04-21T05:22:32.579Z,9.80
2023-04-21T05:23:05.392Z,9.80
2023-04-21T05:23:37.214Z,9.80
2023-04-21T05:24:09.088Z,9.80
2023-04-21T05:24:42.840Z,9.80
2023-04-21T05:25:16.165Z,9.80
2023-04-21T05:25:48.068Z,9.80
2023-04-21T05:26:20.840Z,9.80
2023-04-21T05:26:52.648Z,9.80
2023-04-21T05:27:24.478Z,9.70
2023-04-21T05:27:57.273Z,9.70
2023-04-21T05:28:30.936Z,9.70
2023-04-21T05:29:04.403Z,9.70
2023-04-21T05:29:36.245Z,9.60
2023-04-21T05:30:09.157Z,9.60
2023-04-21T05:30:42.097Z,9.60
2023-04-21T05:31:13.884Z,9.60
2023-04-21T05:31:45.767Z,9.60
2023-04-21T05:32:18.829Z,9.60
2023-04-21T05:33:22.579Z,9.70
2023-04-21T05:33:55.407Z,9.70
2023-04-21T05:34:27.319Z,9.70
2023-04-21T05:35:00.143Z,9.70
2023-04-21T05:35:33.024Z,9.70
2023-04-21T05:36:07.258Z,9.80
2023-04-21T05:36:42.736Z,9.80
2023-04-21T05:37:14.538Z,9.80
2023-04-21T05:37:46.392Z,9.80
2023-04-21T05:38:19.159Z,9.80
2023-04-21T05:38:50.959Z,9.80
2023-04-21T05:39:22.756Z,9.90
2023-04-21T05:39:55.564Z,9.90
2023-04-21T05:40:28.694Z,9.90
2023-04-21T05:41:00.612Z,9.90
2023-04-21T05:41:33.399Z,9.90
2023-04-21T05:42:05.278Z,9.90
2023-04-21T05:42:38.034Z,9.90
2023-04-21T05:43:09.849Z,9.90
2023-04-21T05:43:41.687Z,9.90
2023-04-21T05:44:14.639Z,10.00
2023-04-21T05:44:46.465Z,10.00
2023-04-21T05:45:18.441Z,10.00
2023-04-21T05:45:51.313Z,10.00
2023-04-21T05:46:23.157Z,10.00
2023-04-21T05:46:55.075Z,10.00
2023-04-21T05:47:28.021Z,10.10
2023-04-21T05:47:59.898Z,10.10
2023-04-21T05:48:31.696Z,10.10
2023-04-21T05:49:04.500Z,10.10
2023-04-21T05:49:36.286Z,10.10
2023-04-21T05:50:09.672Z,10.10
2023-04-21T05:50:41.541Z,10.10
2023-04-21T05:51:15.514Z,10.10
2023-04-21T05:51:48.375Z,10.10
2023-04-21T05:52:21.149Z,10.20
2023-04-21T05:52:53.008Z,10.20
2023-04-21T05:53:25.887Z,10.20
2023-04-21T05:53:57.860Z,10.20
2023-04-21T05:54:29.700Z,10.20
2023-04-21T05:55:02.543Z,10.20
2023-04-21T05:55:36.196Z,10.20
2023-04-21T05:56:09.789Z,10.20
2023-04-21T05:56:42.572Z,10.20
2023-04-21T05:57:14.448Z,10.30
2023-04-21T05:57:46.236Z,10.30
2023-04-21T05:58:18.978Z,10.30
2023-04-21T05:58:50.796Z,10.30
2023-04-21T05:59:22.721Z,10.30
2023-04-21T05:59:55.546Z,10.30
2023-04-21T06:00:27.578Z,10.40
2023-04-21T06:00:59.371Z,10.40
2023-04-21T06:01:32.124Z,10.30
2023-04-21T06:02:04.250Z,10.40
2023-04-21T06:02:36.304Z,10.40
2023-04-21T06:03:09.373Z,10.40
2023-04-21T06:03:41.659Z,10.40
2023-04-21T06:04:13.991Z,10.40
2023-04-21T06:04:47.341Z,10.50
2023-04-21T06:05:19.632Z,10.50
2023-04-21T06:05:54.401Z,10.50
2023-04-21T06:06:27.766Z,10.50
2023-04-21T06:07:05.419Z,10.60
2023-04-21T06:07:38.262Z,10.60
2023-04-21T06:08:10.088Z,10.60
2023-04-21T06:08:41.993Z,10.60
2023-04-21T06:09:16.184Z,10.60
2023-04-21T06:09:50.867Z,10.60
2023-04-21T06:10:22.749Z,10.60
2023-04-21T06:10:56.984Z,10.60
2023-04-21T06:11:28.806Z,10.60
2023-04-21T06:12:01.649Z,10.60
2023-04-21T06:12:34.505Z,10.70
2023-04-21T06:13:06.439Z,10.70
2023-04-21T06:13:38.877Z,10.70
2023-04-21T06:14:12.733Z,10.80
2023-04-21T06:14:44.623Z,10.80
2023-04-21T06:15:16.666Z,10.80
2023-04-21T06:15:49.510Z,10.80
2023-04-21T06:16:21.427Z,10.80
2023-04-21T06:16:53.278Z,10.80
2023-04-21T06:17:26.149Z,10.80
2023-04-21T06:17:58.231Z,10.80
2023-04-21T06:18:30.194Z,10.80
2023-04-21T06:19:03.021Z,10.90
2023-04-21T06:19:38.123Z,10.90
2023-04-21T06:20:11.965Z,10.90
2023-04-21T06:20:50.227Z,10.90
2023-04-21T06:21:22.189Z,10.90
2023-04-21T06:21:55.058Z,11.00
2023-04-21T06:22:27.799Z,11.00
2023-04-21T06:22:59.766Z,11.00
2023-04-21T06:23:32.666Z,11.00
2023-04-21T06:24:05.070Z,11.00
2023-04-21T06:24:36.861Z,11.00
2023-04-21T06:25:09.945Z,11.00
2023-04-21T06:25:41.777Z,11.00
2023-04-21T06:26:14.905Z,11.00
2023-04-21T06:26:47.725Z,11.00
2023-04-21T06:27:19.552Z,11.10
2023-04-21T06:27:51.382Z,11.10
2023-04-21T06:28:24.162Z,11.10
2023-04-21T06:28:56.026Z,11.10
2023-04-21T06:29:27.844Z,11.10
2023-04-21T06:30:00.672Z,11.10
2023-04-21T06:30:32.456Z,11.20
2023-04-21T06:31:07.089Z,11.10
2023-04-21T06:31:41.416Z,11.20
2023-04-21T06:32:13.489Z,11.20
2023-04-21T06:32:46.087Z,11.30
2023-04-21T06:33:18.888Z,11.30
2023-04-21T06:33:50.794Z,11.30
2023-04-21T06:34:22.707Z,11.30
2023-04-21T06:34:55.504Z,11.30
2023-04-21T06:35:27.382Z,11.30
2023-04-21T06:35:59.252Z,11.40
2023-04-21T06:36:32.954Z,11.40
2023-04-21T06:37:05.021Z,11.40
2023-04-21T06:37:36.848Z,11.40
2023-04-21T06:38:10.194Z,11.50
2023-04-21T06:38:43.184Z,11.40
2023-04-21T06:39:15.953Z,11.50
2023-04-21T06:39:47.789Z,11.40
2023-04-21T06:40:19.808Z,11.50
2023-04-21T06:40:52.941Z,11.40
2023-04-21T06:41:26.628Z,11.40
2023-04-21T06:41:58.402Z,11.40
2023-04-21T06:42:31.173Z,11.40
2023-04-21T06:43:03.035Z,11.40
2023-04-21T06:43:35.727Z,11.40
2023-04-21T06:44:08.526Z,11.50
2023-04-21T06:44:40.392Z,11.50
2023-04-21T06:45:12.288Z,11.60
2023-04-21T06:45:45.069Z,11.60
2023-04-21T06:46:16.942Z,11.60
2023-04-21T06:46:49.745Z,11.60
2023-04-21T06:47:21.785Z,11.70
2023-04-21T06:47:53.719Z,11.70
2023-04-21T06:48:26.523Z,11.70
2023-04-21T06:48:58.308Z,11.70
2023-04-21T06:49:30.501Z,11.70
2023-04-21T06:50:03.329Z,11.70
2023-04-21T06:50:35.167Z,11.60
2023-04-21T06:51:07.188Z,11.70
2023-04-21T06:51:40.215Z,11.60
2023-04-21T06:52:12.357Z,11.60
2023-04-21T06:52:44.163Z,11.60
2023-04-21T06:53:17.960Z,11.50
2023-04-21T06:53:50.106Z,11.50
2023-04-21T06:54:21.916Z,11.60
2023-04-21T06:54:54.984Z,11.50
2023-04-21T06:55:26.827Z,11.50
2023-04-21T06:55:59.038Z,11.50
2023-04-21T06:56:33.286Z,11.50
2023-04-21T06:57:05.132Z,11.50
2023-04-21T06:57:37.332Z,11.50
2023-04-21T06:58:11.183Z,11.50
2023-04-21T06:58:43.015Z,11.40
2023-04-21T06:59:16.014Z,11.50
2023-04-21T06:59:50.920Z,11.50
2023-04-21T07:00:22.793Z,11.60
2023-04-21T07:00:55.621Z,11.70
2023-04-21T07:01:27.499Z,11.70
2023-04-21T07:01:59.391Z,11.70
2023-04-21T07:02:32.247Z,11.70
2023-04-21T07:03:04.475Z,11.80
2023-04-21T07:03:37.395Z,11.70
2023-04-21T07:04:09.253Z,11.80
2023-04-21T07:04:41.125Z,11.80
2023-04-21T07:05:13.881Z,11.80
2023-04-21T07:05:45.996Z,11.70
2023-04-21T07:06:17.836Z,11.70
2023-04-21T07:06:50.756Z,11.70
2023-04-21T07:07:22.565Z,11.70
2023-04-21T07:07:59.319Z,11.70
2023-04-21T07:08:32.061Z,11.70
2023-04-21T07:09:04.003Z,11.80
2023-04-21T07:09:36.855Z,11.80
2023-04-21T07:10:09.669Z,11.80
2023-04-21T07:10:42.423Z,11.90
2023-04-21T07:11:14.221Z,11.90
2023-04-21T07:11:47.357Z,11.90
2023-04-21T07:12:20.541Z,11.90